Terminal Aerodrome Forecast
Issued by NWS

Home | Current Version | Previous Version | Text Only | Print | Product List | Glossary On
Versions: 1 2 3 4 5 6 7 8 9 10 11 12
000
FTUS45 KGGW 301100 RRA
TAFOLF
TAF
KOLF 301143Z 3012/3112 VRB04KT P6SM OVC015
     FM301700 07008KT P6SM FEW025 SCT070
     FM302200 10010KT P6SM SCT250=

USA.gov is the U.S. government's official web portal to all federal, state and local government web resources and services.